createdAt,value
2019-04-05T00:00:21.186Z,18.10
2019-04-05T00:03:19.023Z,18.15
2019-04-05T00:08:12.236Z,18.40
2019-04-05T00:09:40.050Z,18.35
2019-04-05T00:12:37.774Z,18.07
2019-04-05T00:15:46.384Z,18.10
2019-04-05T00:18:42.569Z,17.50
2019-04-05T00:21:38.829Z,18.50
2019-04-05T00:24:43.231Z,18.05
2019-04-05T00:27:40.230Z,18.73
2019-04-05T00:30:36.443Z,18.55
2019-04-05T00:33:32.734Z,18.82
2019-04-05T00:36:33.105Z,17.42
2019-04-05T00:39:37.869Z,18.65
2019-04-05T00:42:38.585Z,20.02
2019-04-05T00:45:34.720Z,20.00
2019-04-05T00:48:31.222Z,17.98
2019-04-05T00:51:27.705Z,18.48
2019-04-05T00:54:28.731Z,18.07
2019-04-05T00:57:36.975Z,17.45
2019-04-05T01:00:23.792Z,17.98
2019-04-05T01:03:20.220Z,17.55
2019-04-05T01:06:21.625Z,18.42
2019-04-05T01:09:25.519Z,18.10
2019-04-05T01:12:23.712Z,18.35
2019-04-05T01:15:17.280Z,18.50
2019-04-05T01:18:14.869Z,17.62
2019-04-05T01:21:22.630Z,17.50
2019-04-05T01:24:09.841Z,15.83
2019-04-05T01:27:09.043Z,17.25
2019-04-05T01:30:11.469Z,17.20
2019-04-05T01:33:13.014Z,16.75
2019-04-05T01:36:03.915Z,17.02
2019-04-05T01:39:00.242Z,17.00
2019-04-05T01:42:02.388Z,17.73
2019-04-05T01:45:05.378Z,17.52
2019-04-05T01:48:04.852Z,17.07
2019-04-05T01:50:58.938Z,17.50
2019-04-05T01:53:54.780Z,17.62
2019-04-05T01:56:54.492Z,18.55
2019-04-05T01:59:50.979Z,17.05
2019-04-05T02:02:47.172Z,19.02
2019-04-05T02:05:43.961Z,18.32
2019-04-05T02:08:41.286Z,18.55
2019-04-05T02:11:38.091Z,18.65
2019-04-05T02:14:43.205Z,18.40
2019-04-05T02:18:05.174Z,18.55
2019-04-05T02:20:45.056Z,19.15
2019-04-05T02:23:45.669Z,18.48
2019-04-05T02:26:48.967Z,19.05
2019-04-05T02:29:47.476Z,18.15
2019-04-05T02:32:49.974Z,19.32
2019-04-05T02:38:38.949Z,20.52
2019-04-05T02:41:40.666Z,20.30
2019-04-05T02:44:43.415Z,19.87
2019-04-05T02:47:39.615Z,20.45
2019-04-05T02:50:46.256Z,19.27
2019-04-05T02:53:41.422Z,19.75
2019-04-05T02:56:37.522Z,20.15
2019-04-05T02:59:44.314Z,20.40
2019-04-05T03:02:34.160Z,21.65
2019-04-05T03:05:36.316Z,22.07
2019-04-05T03:09:06.600Z,20.37
2019-04-05T03:11:46.727Z,22.27
2019-04-05T03:14:59.941Z,21.07
2019-04-05T03:17:54.365Z,22.55
2019-04-05T03:21:12.962Z,20.27
2019-04-05T03:24:10.439Z,21.95
2019-04-05T03:27:16.910Z,19.02
2019-04-05T03:30:14.808Z,20.85
2019-04-05T03:36:18.773Z,20.75
2019-04-05T03:39:09.548Z,21.93
2019-04-05T03:45:04.622Z,17.27
2019-04-05T03:48:01.627Z,16.93
2019-04-05T03:50:58.388Z,17.10
2019-04-05T03:54:03.242Z,19.15
2019-04-05T03:56:52.432Z,15.05
2019-04-05T03:59:58.576Z,15.15
2019-04-05T04:02:55.937Z,16.57
2019-04-05T04:05:53.291Z,17.52
2019-04-05T04:08:54.285Z,15.88
2019-04-05T04:12:00.309Z,17.70
2019-04-05T04:15:13.325Z,16.07
2019-04-05T04:17:56.731Z,17.23
2019-04-05T04:21:00.985Z,15.18
2019-04-05T04:24:03.591Z,18.15
2019-04-05T04:27:00.629Z,15.70
2019-04-05T04:30:17.414Z,16.37
2019-04-05T04:33:23.515Z,16.87
2019-04-05T04:36:05.152Z,17.37
2019-04-05T04:39:03.093Z,18.05
2019-04-05T04:42:19.012Z,16.95
2019-04-05T04:45:12.446Z,16.02
2019-04-05T04:48:06.869Z,16.50
2019-04-05T04:51:09.597Z,15.38
2019-04-05T04:54:12.024Z,16.05
2019-04-05T04:57:15.046Z,16.52
2019-04-05T05:00:17.929Z,15.98
2019-04-05T05:03:14.651Z,17.05
2019-04-05T05:06:21.815Z,17.23
2019-04-05T05:09:25.028Z,14.53
2019-04-05T05:13:05.139Z,16.97
2019-04-05T05:16:03.798Z,15.88
2019-04-05T05:22:19.307Z,15.15
2019-04-05T05:25:19.072Z,15.65
2019-04-05T05:28:18.637Z,15.13
2019-04-05T05:31:29.723Z,15.10
2019-04-05T05:34:30.424Z,15.30
2019-04-05T05:37:32.970Z,15.60
2019-04-05T05:48:30.858Z,15.15
2019-04-05T05:51:39.215Z,15.05
2019-04-05T05:55:36.322Z,15.10
2019-04-05T05:58:50.973Z,14.35
2019-04-05T06:01:53.898Z,12.50
2019-04-05T06:04:56.506Z,11.93
2019-04-05T06:08:00.913Z,12.23
2019-04-05T06:10:59.289Z,12.50
2019-04-05T06:14:24.613Z,11.75
2019-04-05T06:18:04.146Z,11.75
2019-04-05T06:20:59.804Z,11.83
2019-04-05T06:23:59.758Z,11.38
2019-04-05T06:27:03.565Z,12.55
2019-04-05T06:30:00.833Z,12.13
2019-04-05T06:33:00.455Z,12.15
2019-04-05T06:36:26.766Z,12.18
2019-04-05T06:39:32.290Z,13.03
2019-04-05T06:43:12.135Z,11.70
2019-04-05T06:46:01.695Z,12.88
2019-04-05T06:49:16.403Z,12.73
2019-04-05T06:52:16.063Z,11.53
2019-04-05T06:55:17.009Z,12.82
2019-04-05T06:58:29.082Z,11.88
2019-04-05T07:01:31.763Z,11.22
2019-04-05T07:04:49.744Z,11.70
2019-04-05T07:09:13.031Z,10.70
2019-04-05T07:12:07.673Z,11.30
2019-04-05T07:15:31.950Z,10.40
2019-04-05T07:19:09.713Z,10.90
2019-04-05T07:22:13.099Z,10.05
2019-04-05T07:28:24.898Z,10.48
2019-04-05T07:31:42.655Z,11.38
2019-04-05T07:34:51.219Z,9.75
2019-04-05T07:41:32.318Z,10.35
2019-04-05T07:44:44.935Z,10.35
2019-04-05T07:47:41.917Z,10.65
2019-04-05T07:50:38.454Z,10.20
2019-04-05T07:53:33.535Z,10.23
2019-04-05T07:56:34.929Z,8.43
2019-04-05T07:59:31.218Z,9.18
2019-04-05T08:02:43.030Z,9.20
2019-04-05T08:05:54.663Z,10.05
2019-04-05T08:09:22.873Z,9.18
2019-04-05T08:12:23.403Z,9.75
2019-04-05T08:15:18.618Z,9.35
2019-04-05T08:18:17.959Z,9.53
2019-04-05T08:21:15.873Z,8.63
2019-04-05T08:24:12.720Z,8.98
2019-04-05T08:27:13.275Z,10.25
2019-04-05T08:33:47.662Z,9.70
2019-04-05T08:36:48.993Z,9.35
2019-04-05T08:39:50.589Z,9.90
2019-04-05T08:46:14.006Z,9.70
2019-04-05T08:49:19.507Z,10.32
2019-04-05T08:52:20.348Z,8.25
2019-04-05T08:55:40.677Z,8.68
2019-04-05T08:58:38.719Z,9.60
2019-04-05T09:01:34.742Z,9.90
2019-04-05T09:05:12.089Z,9.45
2019-04-05T09:08:21.315Z,8.43
2019-04-05T09:11:16.459Z,8.63
2019-04-05T09:14:14.360Z,8.35
2019-04-05T09:17:15.685Z,8.70
2019-04-05T09:20:15.703Z,9.50
2019-04-05T09:23:33.159Z,8.88
2019-04-05T09:30:12.974Z,9.63
2019-04-05T09:33:11.284Z,8.40
2019-04-05T09:36:08.672Z,9.58
2019-04-05T09:39:05.894Z,9.48
2019-04-05T09:42:10.425Z,8.80
2019-04-05T09:45:13.163Z,8.43
2019-04-05T09:48:08.911Z,8.60
2019-04-05T09:51:27.379Z,9.28
2019-04-05T09:54:08.953Z,9.33
2019-04-05T09:57:05.748Z,9.78
2019-04-05T10:00:03.086Z,8.53
2019-04-05T10:03:05.368Z,9.20
2019-04-05T10:06:06.620Z,8.95
2019-04-05T10:09:07.216Z,9.00
2019-04-05T10:12:05.119Z,9.40
2019-04-05T10:15:03.032Z,8.93
2019-04-05T10:17:59.918Z,9.33
2019-04-05T10:21:10.633Z,9.25
2019-04-05T10:24:11.520Z,8.78
2019-04-05T10:27:10.830Z,8.15
2019-04-05T10:30:21.429Z,8.10
2019-04-05T10:33:19.682Z,8.05
2019-04-05T10:36:42.415Z,7.97
2019-04-05T10:39:42.735Z,7.97
2019-04-05T10:42:42.996Z,9.75
2019-04-05T10:45:40.554Z,8.68
2019-04-05T10:48:42.021Z,7.92
2019-04-05T10:51:43.555Z,8.15
2019-04-05T10:55:10.675Z,8.55
2019-04-05T10:58:11.491Z,8.60
2019-04-05T11:01:14.279Z,9.30
2019-04-05T11:04:10.171Z,10.00
2019-04-05T11:07:21.373Z,8.63
2019-04-05T11:10:20.715Z,8.90
2019-04-05T11:13:16.849Z,8.85
2019-04-05T11:16:19.162Z,8.43
2019-04-05T11:19:47.321Z,8.98
2019-04-05T11:23:11.884Z,8.00
2019-04-05T11:35:11.411Z,8.25
2019-04-05T11:38:54.167Z,7.95
2019-04-05T11:50:33.604Z,8.93
2019-04-05T12:29:26.946Z,10.80
2019-04-05T12:32:44.165Z,10.88
2019-04-05T12:36:31.138Z,10.60
2019-04-05T12:46:55.959Z,11.90
2019-04-05T12:50:22.655Z,11.78
2019-04-05T12:56:46.352Z,12.53
2019-04-05T12:59:44.745Z,12.25
2019-04-05T13:03:36.388Z,13.30
2019-04-05T13:34:20.593Z,13.80
2019-04-05T13:37:28.560Z,14.80
2019-04-05T13:40:29.574Z,15.95
2019-04-05T13:43:26.239Z,14.78
2019-04-05T13:46:46.177Z,15.00
2019-04-05T13:49:42.838Z,15.15
2019-04-05T13:52:42.296Z,14.90
2019-04-05T13:55:56.482Z,15.45
2019-04-05T13:58:57.396Z,15.55
2019-04-05T14:01:52.136Z,15.10
2019-04-05T14:04:53.929Z,15.60
2019-04-05T14:08:09.178Z,15.60
2019-04-05T14:10:53.325Z,15.65
2019-04-05T14:13:49.600Z,16.32
2019-04-05T14:16:47.130Z,16.05
2019-04-05T14:19:43.733Z,14.95
2019-04-05T14:22:39.411Z,15.80
2019-04-05T14:25:39.643Z,16.17
2019-04-05T14:28:34.905Z,16.70
2019-04-05T14:31:31.586Z,16.27
2019-04-05T14:34:26.782Z,16.82
2019-04-05T14:37:25.020Z,16.37
2019-04-05T14:40:21.506Z,16.45
2019-04-05T14:43:17.509Z,15.38
2019-04-05T14:46:12.325Z,15.93
2019-04-05T14:49:07.519Z,17.02
2019-04-05T14:52:03.785Z,15.65
2019-04-05T14:55:00.061Z,15.08
2019-04-05T14:57:55.787Z,15.78
2019-04-05T15:00:51.435Z,16.25
2019-04-05T15:04:01.911Z,15.65
2019-04-05T15:07:07.848Z,15.65
2019-04-05T15:10:03.835Z,15.85
2019-04-05T15:13:03.773Z,15.28
2019-04-05T15:19:29.739Z,16.10
2019-04-05T15:22:31.869Z,16.30
2019-04-05T15:25:32.098Z,14.58
2019-04-05T15:28:39.376Z,15.43
2019-04-05T15:31:34.551Z,16.85
2019-04-05T15:34:31.776Z,15.20
2019-04-05T15:37:31.599Z,16.30
2019-04-05T15:40:25.646Z,16.17
2019-04-05T15:43:23.072Z,16.73
2019-04-05T15:46:18.127Z,16.35
2019-04-05T15:49:13.186Z,15.88
2019-04-05T15:52:17.979Z,16.93
2019-04-05T15:55:04.639Z,16.42
2019-04-05T15:58:01.473Z,16.95
2019-04-05T16:00:55.911Z,16.00
2019-04-05T16:03:52.466Z,16.15
2019-04-05T16:06:51.142Z,15.65
2019-04-05T16:09:46.114Z,15.93
2019-04-05T16:12:41.102Z,16.82
2019-04-05T16:15:36.147Z,16.30
2019-04-05T16:18:31.686Z,15.83
2019-04-05T16:21:28.559Z,16.60
2019-04-05T16:24:23.547Z,17.10
2019-04-05T16:27:19.039Z,16.20
2019-04-05T16:30:14.639Z,15.78
2019-04-05T16:33:13.028Z,16.50
2019-04-05T16:36:09.570Z,16.82
2019-04-05T16:39:09.302Z,16.30
2019-04-05T16:42:10.065Z,17.32
2019-04-05T16:45:06.930Z,16.42
2019-04-05T16:48:03.911Z,16.07
2019-04-05T16:51:00.102Z,16.48
2019-04-05T16:54:03.254Z,16.20
2019-04-05T16:57:02.249Z,16.77
2019-04-05T16:59:57.004Z,16.48
2019-04-05T17:02:55.128Z,17.40
2019-04-05T17:05:50.190Z,15.68
2019-04-05T17:08:46.130Z,16.17
2019-04-05T17:11:42.651Z,17.25
2019-04-05T17:14:39.378Z,16.82
2019-04-05T17:17:35.135Z,15.78
2019-04-05T17:20:32.223Z,17.00
2019-04-05T17:23:26.874Z,15.78
2019-04-05T17:26:21.678Z,15.48
2019-04-05T17:29:17.501Z,14.73
2019-04-05T17:32:12.608Z,16.42
2019-04-05T17:35:08.199Z,18.20
2019-04-05T17:38:05.239Z,16.90
2019-04-05T17:41:00.812Z,18.35
2019-04-05T17:43:56.742Z,17.17
2019-04-05T17:46:52.274Z,17.45
2019-04-05T17:49:47.713Z,16.73
2019-04-05T17:52:43.915Z,17.73
2019-04-05T17:55:38.793Z,16.82
2019-04-05T17:58:35.350Z,17.77
2019-04-05T18:01:30.585Z,17.67
2019-04-05T18:04:27.172Z,15.90
2019-04-05T18:07:21.903Z,17.67
2019-04-05T18:10:16.945Z,17.95
2019-04-05T18:13:12.056Z,18.48
2019-04-05T18:16:06.933Z,17.02
2019-04-05T18:19:03.619Z,16.97
2019-04-05T18:21:58.807Z,17.45
2019-04-05T18:24:54.003Z,17.75
2019-04-05T18:27:49.039Z,17.90
2019-04-05T18:30:44.455Z,18.82
2019-04-05T18:33:41.506Z,17.60
2019-04-05T18:36:36.603Z,17.23
2019-04-05T18:39:31.718Z,19.27
2019-04-05T18:42:28.453Z,17.55
2019-04-05T18:45:23.725Z,18.80
2019-04-05T18:48:18.945Z,19.67
2019-04-05T18:51:13.889Z,18.45
2019-04-05T18:54:10.186Z,18.95
2019-04-05T18:57:05.050Z,18.60
2019-04-05T19:00:00.137Z,19.90
2019-04-05T19:02:55.148Z,17.80
2019-04-05T19:05:50.092Z,17.75
2019-04-05T19:08:47.693Z,18.67
2019-04-05T19:11:44.361Z,18.35
2019-04-05T19:14:39.548Z,19.35
2019-04-05T19:17:35.038Z,17.05
2019-04-05T19:20:30.307Z,17.85
2019-04-05T19:23:26.229Z,18.10
2019-04-05T19:26:21.787Z,17.65
2019-04-05T19:29:16.824Z,16.82
2019-04-05T19:49:53.225Z,19.17
2019-04-05T19:52:48.340Z,17.62
2019-04-05T19:55:43.306Z,18.90
2019-04-05T19:58:39.300Z,16.67
2019-04-05T20:01:34.347Z,17.50
2019-04-05T20:04:30.607Z,17.52
2019-04-05T20:07:25.761Z,17.07
2019-04-05T20:10:20.946Z,16.27
2019-04-05T20:13:16.072Z,16.80
2019-04-05T20:16:11.420Z,18.40
2019-04-05T20:19:06.324Z,17.32
2019-04-05T20:22:01.666Z,17.12
2019-04-05T20:24:56.857Z,17.12
2019-04-05T20:27:52.846Z,17.02
2019-04-05T20:30:48.513Z,17.85
2019-04-05T20:33:43.817Z,16.75
2019-04-05T20:36:38.703Z,17.00
2019-04-05T20:39:34.193Z,18.00
2019-04-05T20:42:29.116Z,17.35
2019-04-05T20:45:24.615Z,18.02
2019-04-05T20:48:20.112Z,17.70
2019-04-05T20:51:15.888Z,18.25
2019-04-05T20:54:11.076Z,18.40
2019-04-05T20:57:07.115Z,17.12
2019-04-05T21:00:02.481Z,17.15
2019-04-05T21:02:59.084Z,17.75
2019-04-05T21:05:54.060Z,18.20
2019-04-05T21:08:49.258Z,17.73
2019-04-05T21:11:44.559Z,18.55
2019-04-05T21:14:39.661Z,18.20
2019-04-05T21:17:35.182Z,18.32
2019-04-05T21:20:31.317Z,19.52
2019-04-05T21:23:26.524Z,18.32
2019-04-05T21:26:21.848Z,18.65
2019-04-05T21:29:16.731Z,18.27
2019-04-05T21:32:11.828Z,19.07
2019-04-05T21:35:06.817Z,17.00
2019-04-05T21:38:01.652Z,18.02
2019-04-05T21:40:58.399Z,18.85
2019-04-05T21:43:53.404Z,19.45
2019-04-05T21:46:48.277Z,20.30
2019-04-05T21:49:43.157Z,20.80
2019-04-05T21:52:38.370Z,19.90
2019-04-05T21:55:33.366Z,19.32
2019-04-05T21:58:28.713Z,19.27
2019-04-05T22:01:25.009Z,20.97
2019-04-05T22:04:21.402Z,20.85
2019-04-05T22:07:16.449Z,19.35
2019-04-05T22:10:12.570Z,20.10
2019-04-05T22:13:11.077Z,21.37
2019-04-05T22:16:06.372Z,21.35
2019-04-05T22:19:01.269Z,20.52
2019-04-05T22:21:56.615Z,21.87
2019-04-05T22:24:59.155Z,20.77
2019-04-05T22:27:48.819Z,21.20
2019-04-05T22:30:44.018Z,20.77
2019-04-05T22:33:39.201Z,22.77
2019-04-05T22:36:35.504Z,21.82
2019-04-05T22:39:30.556Z,21.10
2019-04-05T22:42:25.847Z,22.55
2019-04-05T22:45:21.197Z,21.97
2019-04-05T22:48:16.668Z,22.10
2019-04-05T22:51:11.729Z,22.65
2019-04-05T22:54:07.463Z,20.95
2019-04-05T22:57:03.413Z,21.57
2019-04-05T22:59:58.200Z,22.15
2019-04-05T23:02:53.584Z,22.25
2019-04-05T23:05:48.677Z,22.30
2019-04-05T23:08:43.823Z,22.50
2019-04-05T23:11:39.076Z,21.73
2019-04-05T23:14:34.537Z,22.70
2019-04-05T23:17:29.674Z,22.93
2019-04-05T23:20:25.004Z,21.48
2019-04-05T23:23:20.201Z,22.32
2019-04-05T23:26:16.569Z,22.20
2019-04-05T23:29:11.812Z,21.93
2019-04-05T23:32:07.035Z,22.22
2019-04-05T23:35:02.341Z,22.48
2019-04-05T23:37:57.999Z,22.32
2019-04-05T23:40:53.260Z,22.45
2019-04-05T23:43:48.564Z,22.27
2019-04-05T23:46:44.010Z,21.35
2019-04-05T23:49:39.722Z,22.42
2019-04-05T23:52:34.553Z,22.25
2019-04-05T23:55:33.559Z,21.75
2019-04-05T23:58:30.897Z,22.82
